Time;durP1;ratioP1;P1;durP2;ratioP2;P2;SDS_P1;SDS_P2;PMS_P1;PMS_P2;Temp;Humidity;BMP_temperature;BMP_pressure;BME280_temperature;BME280_humidity;BME280_pressure;Samples;Min_cycle;Max_cycle;Signal;HPM_P1;HPM_P2
2023/11/02 00:02:02;;;;;;;12.57;10.37;;;;;;;9.01;80.73;99560.84;5053533;28;20194;-68
2023/11/02 00:04:31;;;;;;;14.23;10.30;;;;;;;9.01;80.70;99566.00;5053864;28;20565;-62
2023/11/02 00:06:59;;;;;;;12.87;9.30;;;;;;;9.00;80.79;99562.56;5053370;28;20305;-69
2023/11/02 00:09:36;;;;;;;15.73;9.50;;;;;;;9.02;80.43;99563.41;5053438;28;20206;-64
2023/11/02 00:12:07;;;;;;;12.77;10.07;;;;;;;9.03;80.32;99569.41;5053794;28;20680;-64
2023/11/02 00:14:41;;;;;;;13.63;9.83;;;;;;;9.01;80.49;99564.25;5053345;28;20225;-67
2023/11/02 00:17:46;;;;;;;13.80;10.17;;;;;;;9.01;80.25;99564.25;5053634;28;20260;-68
2023/11/02 00:20:44;;;;;;;12.67;9.20;;;;;;;9.01;80.03;99561.69;5052035;28;20311;-66
2023/11/02 00:23:14;;;;;;;14.60;8.93;;;;;;;8.99;80.24;99555.75;5053115;28;20665;-67
2023/11/02 00:25:53;;;;;;;12.77;9.33;;;;;;;8.98;80.24;99559.16;5053543;28;20228;-67
2023/11/02 00:28:22;;;;;;;13.37;9.77;;;;;;;8.89;79.63;99539.59;5053390;28;20640;-68
2023/11/02 00:30:51;;;;;;;11.93;9.13;;;;;;;8.93;80.17;99553.25;5073013;28;20212;-67
2023/11/02 00:33:21;;;;;;;15.17;10.03;;;;;;;8.90;80.21;99550.72;5072689;28;20233;-69
2023/11/02 00:35:52;;;;;;;13.07;9.20;;;;;;;8.87;80.18;99553.31;5073049;28;20201;-69
2023/11/02 00:38:23;;;;;;;14.13;9.73;;;;;;;8.87;80.19;99543.03;5072896;28;20201;-68
2023/11/02 00:40:52;;;;;;;13.70;9.27;;;;;;;8.81;80.20;99538.84;5073203;28;20201;-69
2023/11/02 00:43:21;;;;;;;13.17;9.97;;;;;;;8.78;80.41;99553.44;5072610;28;20276;-68
2023/11/02 00:45:52;;;;;;;13.77;9.97;;;;;;;8.74;80.35;99549.22;5072139;28;20201;-70
2023/11/02 00:48:22;;;;;;;12.13;9.40;;;;;;;8.73;80.21;99543.22;5082955;28;20968;-68
2023/11/02 00:51:17;;;;;;;14.77;9.10;;;;;;;8.75;80.04;99535.50;5073042;28;20684;-68
2023/11/02 00:53:47;;;;;;;12.90;9.80;;;;;;;8.73;80.85;99537.22;5065240;28;20244;-67
2023/11/02 00:56:17;;;;;;;13.53;9.70;;;;;;;8.76;80.64;99539.75;5072010;28;20300;-69
2023/11/02 00:58:47;;;;;;;12.10;9.80;;;;;;;8.75;80.17;99538.06;5072459;28;20211;-71
2023/11/02 01:01:18;;;;;;;13.47;9.83;;;;;;;8.74;80.52;99537.22;5072270;28;20229;-71
2023/11/02 01:03:48;;;;;;;15.70;10.67;;;;;;;8.74;80.24;99541.50;5071980;28;20201;-71
2023/11/02 01:06:21;;;;;;;15.23;11.10;;;;;;;8.73;79.63;99532.06;5072222;28;20212;-68
2023/11/02 01:08:55;;;;;;;16.13;11.70;;;;;;;8.70;80.16;99526.13;5072523;28;20672;-69
2023/11/02 01:11:29;;;;;;;14.53;11.97;;;;;;;8.69;79.54;99523.59;5072198;28;20202;-69
2023/11/02 01:13:57;;;;;;;19.20;12.43;;;;;;;8.67;80.10;99526.16;5072466;28;20763;-70
2023/11/02 01:16:27;;;;;;;15.20;12.03;;;;;;;8.62;80.10;99521.97;5072273;28;20197;-72
2023/11/02 01:18:57;;;;;;;15.60;11.50;;;;;;;8.61;79.77;99515.09;5072503;28;20208;-72
2023/11/02 01:21:30;;;;;;;14.53;11.03;;;;;;;8.58;79.72;99510.00;5073557;28;20556;-67
2023/11/02 01:24:07;;;;;;;14.73;11.13;;;;;;;8.55;79.89;99513.47;5071954;28;20209;-68
2023/11/02 01:26:58;;;;;;;13.17;9.37;;;;;;;8.53;80.15;99507.50;5072237;28;20243;-68
2023/11/02 01:29:31;;;;;;;14.90;9.67;;;;;;;8.51;80.17;99513.53;5071834;28;20296;-67
2023/11/02 01:32:00;;;;;;;12.53;10.13;;;;;;;8.52;79.93;99504.97;5071863;28;20239;-68
2023/11/02 01:34:30;;;;;;;14.40;9.73;;;;;;;8.53;79.70;99497.22;5071680;28;20296;-73
2023/11/02 01:36:59;;;;;;;13.63;9.77;;;;;;;8.53;79.90;99496.38;5072089;28;20700;-71
2023/11/02 01:40:04;;;;;;;14.97;10.13;;;;;;;8.54;79.81;99492.94;5071719;28;20197;-68
2023/11/02 01:42:42;;;;;;;11.00;8.93;;;;;;;8.52;79.48;99485.25;5060450;28;20602;-63
2023/11/02 01:45:13;;;;;;;15.30;9.47;;;;;;;8.52;80.33;99482.69;5077325;28;20208;-61
2023/11/02 01:48:01;;;;;;;13.13;9.30;;;;;;;8.51;79.68;99486.13;5070575;28;20247;-63
2023/11/02 01:50:33;;;;;;;13.97;10.10;;;;;;;8.51;79.57;99481.00;5071580;28;20201;-62
2023/11/02 01:53:37;;;;;;;13.20;9.23;;;;;;;8.50;79.35;99478.44;5071592;28;20224;-63
2023/11/02 01:56:19;;;;;;;12.33;9.23;;;;;;;8.52;79.62;99480.13;5071186;28;20652;-63
2023/11/02 01:59:03;;;;;;;12.93;8.60;;;;;;;8.54;79.31;99478.38;5071366;28;20718;-62
2023/11/02 02:01:35;;;;;;;12.60;8.40;;;;;;;8.54;79.78;99477.53;5071199;28;20728;-63
2023/11/02 02:04:15;;;;;;;11.77;9.13;;;;;;;8.54;79.88;99477.53;5071083;28;20206;-66
2023/11/02 02:06:58;;;;;;;10.90;8.10;;;;;;;8.48;79.04;99478.47;5071333;28;20654;-63
2023/11/02 02:09:54;;;;;;;14.27;9.67;;;;;;;8.45;79.29;99474.22;5071279;28;20810;-62
2023/11/02 02:12:33;;;;;;;15.27;8.30;;;;;;;8.42;79.38;99473.41;5071326;28;20577;-63
2023/11/02 02:15:07;;;;;;;11.03;8.30;;;;;;;8.41;79.62;99484.53;5070422;28;20676;-63
2023/11/02 02:17:44;;;;;;;12.93;8.93;;;;;;;8.39;79.34;99479.41;5070225;28;20233;-62
2023/11/02 02:20:16;;;;;;;13.47;8.60;;;;;;;8.40;79.69;99480.28;5070607;28;20201;-63
2023/11/02 02:22:49;;;;;;;12.43;9.10;;;;;;;8.35;79.67;99482.84;5070998;28;20216;-62
2023/11/02 02:25:28;;;;;;;12.10;8.80;;;;;;;8.29;79.60;99482.09;5057259;28;20258;-63
2023/11/02 02:28:35;;;;;;;12.40;8.50;;;;;;;8.31;79.25;99475.22;5070907;28;20205;-64
2023/11/02 02:31:22;;;;;;;11.13;7.97;;;;;;;8.28;79.40;99464.97;5014546;28;20211;-61
2023/11/02 02:34:20;;;;;;;11.03;7.87;;;;;;;8.28;79.58;99459.84;5070304;28;20308;-62
2023/11/02 02:36:59;;;;;;;11.13;7.10;;;;;;;8.30;79.21;99453.00;5070558;28;20201;-63
2023/11/02 02:39:30;;;;;;;12.13;7.50;;;;;;;8.30;79.91;99456.41;5070731;28;20273;-62
2023/11/02 02:42:01;;;;;;;9.93;6.93;;;;;;;8.34;79.78;99452.94;5070829;28;20193;-65
2023/11/02 02:44:32;;;;;;;9.57;7.23;;;;;;;8.35;79.65;99453.78;5070373;28;20569;-63
2023/11/02 02:47:03;;;;;;;9.53;7.63;;;;;;;8.34;79.20;99457.22;5069295;28;20296;-63
2023/11/02 02:49:38;;;;;;;11.00;7.87;;;;;;;8.31;79.12;99446.97;5070569;28;20282;-64
2023/11/02 02:52:12;;;;;;;10.77;7.60;;;;;;;8.34;79.54;99460.63;5070680;28;20292;-62
2023/11/02 02:54:46;;;;;;;12.40;7.57;;;;;;;8.32;78.87;99461.50;5070263;28;20208;-67
2023/11/02 02:57:18;;;;;;;11.40;7.87;;;;;;;8.32;78.80;99446.97;5070777;28;20211;-68
2023/11/02 02:59:50;;;;;;;10.13;7.60;;;;;;;8.24;78.81;99444.47;5071114;28;20288;-68
2023/11/02 03:02:22;;;;;;;8.97;6.90;;;;;;;8.21;78.77;99443.66;5071171;28;20201;-67
2023/11/02 03:04:50;;;;;;;8.37;7.00;;;;;;;8.21;79.13;99454.81;5056882;28;20282;-68
2023/11/02 03:07:20;;;;;;;11.13;7.63;;;;;;;8.22;79.59;99451.34;5070623;28;20219;-66
2023/11/02 03:09:50;;;;;;;9.67;7.80;;;;;;;8.20;79.49;99447.94;5070495;28;20209;-67
2023/11/02 03:12:24;;;;;;;10.70;7.37;;;;;;;8.23;79.33;99449.63;5070426;28;20233;-65
2023/11/02 03:14:53;;;;;;;9.20;7.00;;;;;;;8.21;79.30;99449.66;5070493;28;20221;-68
2023/11/02 03:17:48;;;;;;;11.53;8.03;;;;;;;8.21;79.68;99449.66;5069776;28;20240;-68
2023/11/02 03:20:17;;;;;;;10.33;7.17;;;;;;;8.20;79.34;99447.94;5070660;28;20228;-69
2023/11/02 03:22:46;;;;;;;13.37;7.60;;;;;;;8.18;79.49;99439.44;5070482;28;20212;-66
2023/11/02 03:25:24;;;;;;;10.43;7.67;;;;;;;8.13;79.48;99441.19;5069980;28;20189;-67
2023/11/02 03:28:07;;;;;;;11.47;7.03;;;;;;;8.11;79.98;99437.81;5072432;28;20197;-67
2023/11/02 03:30:46;;;;;;;11.03;7.37;;;;;;;8.08;79.99;99432.69;5073986;28;20212;-66
2023/11/02 03:33:22;;;;;;;11.13;7.60;;;;;;;8.10;79.85;99440.38;5073715;28;20247;-67
2023/11/02 03:35:56;;;;;;;9.97;7.27;;;;;;;8.07;79.60;99435.28;5065907;28;20246;-67
2023/11/02 03:38:37;;;;;;;10.53;7.60;;;;;;;8.02;79.90;99437.88;5073680;28;20212;-68
2023/11/02 03:41:14;;;;;;;9.50;6.63;;;;;;;8.03;79.92;99421.66;5074079;28;20299;-68
2023/11/02 03:43:52;;;;;;;9.00;7.27;;;;;;;8.04;79.54;99420.78;5073693;28;20696;-71
2023/11/02 03:46:32;;;;;;;8.57;7.03;;;;;;;8.02;80.00;99425.06;5073307;28;20223;-66
2023/11/02 03:49:15;;;;;;;8.33;6.93;;;;;;;7.98;79.69;99418.28;5073591;28;20228;-66
2023/11/02 03:51:57;;;;;;;11.63;6.90;;;;;;;7.95;80.03;99416.63;5094031;28;20624;-66
2023/11/02 03:54:46;;;;;;;9.00;6.67;;;;;;;7.95;79.48;99426.00;5093710;28;20208;-66
2023/11/02 03:57:21;;;;;;;9.17;6.53;;;;;;;7.93;79.14;99422.63;5094177;28;20656;-70
2023/11/02 04:00:02;;;;;;;8.43;6.40;;;;;;;7.96;80.43;99425.16;5080598;28;20655;-67
2023/11/02 04:02:31;;;;;;;8.07;6.40;;;;;;;7.95;80.12;99428.56;5093815;28;20203;-67
2023/11/02 04:05:13;;;;;;;7.63;6.53;;;;;;;7.95;79.75;99413.16;5094093;28;20754;-63
2023/11/02 04:07:56;;;;;;;7.63;6.60;;;;;;;7.89;79.86;99400.44;5093790;28;21018;-64
2023/11/02 04:10:27;;;;;;;10.27;6.67;;;;;;;7.87;79.92;99395.31;5093719;28;20218;-68
2023/11/02 04:13:04;;;;;;;9.17;6.67;;;;;;;7.88;79.94;99404.72;5093785;28;20558;-68
2023/11/02 04:15:32;;;;;;;8.27;6.70;;;;;;;7.87;79.51;99407.28;5093537;28;20216;-69
2023/11/02 04:18:00;;;;;;;10.40;6.53;;;;;;;7.88;79.93;99393.59;5093303;28;20240;-68
2023/11/02 04:20:28;;;;;;;8.97;6.47;;;;;;;7.85;78.96;99402.19;5093776;28;20224;-72
2023/11/02 04:22:56;;;;;;;8.73;6.47;;;;;;;7.84;80.24;99410.75;5093475;28;20204;-71
2023/11/02 04:25:26;;;;;;;9.90;6.90;;;;;;;7.85;80.05;99403.91;5093451;28;20231;-61
2023/11/02 04:27:54;;;;;;;8.20;6.33;;;;;;;7.89;80.05;99408.13;5093257;28;20204;-61
2023/11/02 04:30:22;;;;;;;9.03;6.43;;;;;;;7.89;80.07;99398.72;5093234;28;20284;-62
2023/11/02 04:32:50;;;;;;;9.07;6.53;;;;;;;7.90;79.49;99394.44;5093124;28;20296;-62
2023/11/02 04:35:18;;;;;;;10.60;6.60;;;;;;;7.88;79.59;99402.16;5093220;28;20695;-62
2023/11/02 04:38:02;;;;;;;9.57;6.10;;;;;;;7.87;79.03;99397.03;5093421;28;20255;-61
2023/11/02 04:40:32;;;;;;;10.17;6.17;;;;;;;7.84;79.11;99392.78;5092725;28;20196;-63
2023/11/02 04:43:00;;;;;;;9.80;6.80;;;;;;;7.81;79.74;99379.16;5093072;28;20651;-63
2023/11/02 04:45:28;;;;;;;9.17;6.93;;;;;;;7.83;79.42;99387.66;5092709;28;20239;-63
2023/11/02 04:47:57;;;;;;;8.23;6.77;;;;;;;7.79;79.72;99386.00;5093253;28;20648;-62
2023/11/02 04:50:25;;;;;;;10.97;7.10;;;;;;;7.75;79.88;99386.03;5092899;28;20208;-64
2023/11/02 04:52:54;;;;;;;12.03;7.43;;;;;;;7.72;80.07;99380.94;5092887;28;20554;-64
2023/11/02 04:55:22;;;;;;;10.33;7.27;;;;;;;7.77;80.15;99382.59;5092596;28;20220;-64
2023/11/02 04:57:51;;;;;;;10.67;7.20;;;;;;;7.76;79.32;99381.75;5092804;28;20211;-68
2023/11/02 05:00:19;;;;;;;11.13;7.23;;;;;;;7.77;79.21;99375.78;5092902;28;20584;-66
2023/11/02 05:02:47;;;;;;;10.57;6.87;;;;;;;7.74;80.22;99375.81;5091528;28;20205;-66
2023/11/02 05:05:15;;;;;;;11.93;8.23;;;;;;;7.70;79.16;99369.00;5081929;28;20231;-67
2023/11/02 05:07:43;;;;;;;10.37;7.67;;;;;;;7.67;80.10;99353.66;5092468;28;20244;-67
2023/11/02 05:10:11;;;;;;;11.40;8.00;;;;;;;7.67;79.36;99362.19;5091896;28;20651;-63
2023/11/02 05:12:39;;;;;;;11.20;7.13;;;;;;;7.64;80.44;99366.50;5092584;28;20204;-65
2023/11/02 05:15:10;;;;;;;11.77;7.87;;;;;;;7.66;79.50;99372.47;5092722;28;20660;-64
2023/11/02 05:17:38;;;;;;;11.30;7.50;;;;;;;7.65;80.41;99376.72;5092156;28;20275;-64
2023/11/02 05:20:07;;;;;;;11.17;7.13;;;;;;;7.64;79.37;99366.50;5092515;28;20311;-67
2023/11/02 05:22:35;;;;;;;10.50;7.40;;;;;;;7.62;79.69;99376.78;5092231;28;20275;-63
2023/11/02 05:25:03;;;;;;;13.47;8.07;;;;;;;7.60;79.70;99375.94;5092366;28;20574;-66
2023/11/02 05:27:31;;;;;;;11.93;7.40;;;;;;;7.59;79.66;99369.13;5092176;28;20201;-66
2023/11/02 05:29:59;;;;;;;12.60;7.27;;;;;;;7.57;79.94;99365.72;5091970;28;20283;-67
2023/11/02 05:32:29;;;;;;;11.90;7.83;;;;;;;7.58;80.38;99364.84;5092033;28;20254;-68
2023/11/02 05:34:57;;;;;;;10.77;7.97;;;;;;;7.58;80.02;99364.84;5092048;28;20223;-66
2023/11/02 05:37:25;;;;;;;13.43;8.03;;;;;;;7.57;80.11;99367.44;5092337;28;20724;-66
2023/11/02 05:39:54;;;;;;;13.57;7.97;;;;;;;7.55;80.16;99362.34;5091451;28;20648;-67
2023/11/02 05:42:23;;;;;;;12.27;7.17;;;;;;;7.53;79.75;99366.63;5092063;28;20200;-68
2023/11/02 05:44:51;;;;;;;12.87;7.53;;;;;;;7.48;80.61;99358.97;5091851;28;20223;-67
2023/11/02 05:47:19;;;;;;;14.27;8.37;;;;;;;7.46;80.65;99353.00;5091580;28;20200;-67
2023/11/02 05:49:51;;;;;;;12.30;8.23;;;;;;;7.41;81.46;99357.34;5091890;28;20646;-65
2023/11/02 05:52:20;;;;;;;11.43;7.93;;;;;;;7.37;80.77;99353.09;5091771;28;20675;-66
2023/11/02 05:54:48;;;;;;;13.10;8.40;;;;;;;7.35;81.16;99348.84;5090473;28;20220;-64
2023/11/02 05:57:15;;;;;;;12.80;7.93;;;;;;;7.33;81.41;99351.44;5101457;28;20564;-64
2023/11/02 05:59:43;;;;;;;12.23;8.40;;;;;;;7.32;81.28;99341.19;5091387;28;20207;-67
2023/11/02 06:02:12;;;;;;;12.73;8.07;;;;;;;7.33;82.19;99333.50;5091688;28;20608;-64
2023/11/02 06:04:40;;;;;;;10.20;6.90;;;;;;;7.38;81.99;99341.13;5091319;28;20207;-62
2023/11/02 06:07:09;;;;;;;9.77;7.00;;;;;;;7.37;82.37;99340.28;5091957;28;20220;-62
2023/11/02 06:09:37;;;;;;;14.03;8.00;;;;;;;7.40;81.35;99342.84;5090870;28;20270;-65
2023/11/02 06:12:06;;;;;;;12.90;7.53;;;;;;;7.39;81.39;99338.56;5091061;28;20612;-62
2023/11/02 06:14:34;;;;;;;11.03;7.20;;;;;;;7.42;82.07;99330.00;5091290;28;20205;-69
2023/11/02 06:17:01;;;;;;;13.77;7.83;;;;;;;7.42;81.84;99322.31;5091200;28;20710;-67
2023/11/02 06:19:30;;;;;;;10.73;7.70;;;;;;;7.46;82.25;99311.16;5091510;28;20690;-67
2023/11/02 06:21:58;;;;;;;11.93;7.60;;;;;;;7.53;81.95;99320.47;5091488;28;20561;-69
2023/11/02 06:24:27;;;;;;;12.30;7.37;;;;;;;7.61;81.48;99320.38;5091581;28;20200;-66
2023/11/02 06:26:55;;;;;;;10.83;7.40;;;;;;;7.64;81.39;99322.91;5090957;28;20204;-67
2023/11/02 06:29:23;;;;;;;9.80;7.03;;;;;;;7.72;81.59;99321.94;5091260;28;20262;-67
2023/11/02 06:31:51;;;;;;;14.00;8.10;;;;;;;7.71;80.62;99317.69;5090755;28;20201;-66
2023/11/02 06:34:19;;;;;;;11.13;8.10;;;;;;;7.70;80.85;99313.44;5091439;28;20659;-63
2023/11/02 06:36:47;;;;;;;10.83;7.47;;;;;;;7.69;81.26;99326.28;5090163;28;20215;-63
2023/11/02 06:39:20;;;;;;;11.73;8.00;;;;;;;7.67;80.80;99328.03;5096798;28;20613;-63
2023/11/02 06:41:50;;;;;;;11.73;8.63;;;;;;;7.64;81.76;99328.03;5090832;28;20295;-65
2023/11/02 06:44:20;;;;;;;11.10;8.03;;;;;;;7.62;81.04;99315.25;5090831;28;20200;-64
2023/11/02 06:46:48;;;;;;;12.43;7.93;;;;;;;7.61;81.34;99316.09;5090623;28;20226;-63
2023/11/02 06:49:16;;;;;;;11.03;8.57;;;;;;;7.60;81.31;99314.41;5091185;28;20709;-63
2023/11/02 06:51:45;;;;;;;11.43;7.30;;;;;;;7.59;82.08;99317.84;5090785;28;20258;-65
2023/11/02 06:54:13;;;;;;;13.10;7.93;;;;;;;7.58;81.16;99316.13;5090803;28;20215;-62
2023/11/02 06:56:41;;;;;;;11.90;7.40;;;;;;;7.61;82.26;99318.66;5091006;28;20318;-64
2023/11/02 06:59:11;;;;;;;9.60;7.60;;;;;;;7.67;82.35;99308.34;5089918;28;20215;-61
2023/11/02 07:01:38;;;;;;;10.03;7.13;;;;;;;7.68;81.72;99304.06;5091117;28;20214;-61
2023/11/02 07:04:06;;;;;;;8.97;7.43;;;;;;;7.69;81.88;99306.59;5093499;28;20243;-62
2023/11/02 07:06:34;;;;;;;13.00;7.77;;;;;;;7.72;81.98;99310.84;5081152;28;20201;-67
2023/11/02 07:09:03;;;;;;;14.57;7.50;;;;;;;7.75;82.29;99306.53;5094296;28;20254;-64
2023/11/02 07:11:31;;;;;;;12.97;8.00;;;;;;;7.80;81.81;99297.94;5094572;28;20204;-62
2023/11/02 07:13:59;;;;;;;12.47;8.03;;;;;;;7.79;81.52;99286.84;5094650;28;20208;-65
2023/11/02 07:16:29;;;;;;;11.27;7.33;;;;;;;7.78;81.75;99279.19;5094609;28;20251;-63
2023/11/02 07:18:58;;;;;;;12.40;7.17;;;;;;;7.81;81.92;99268.88;5094615;28;20205;-65
2023/11/02 07:21:26;;;;;;;11.33;6.97;;;;;;;7.86;82.38;99269.66;5095056;28;20200;-69
2023/11/02 07:23:54;;;;;;;10.37;7.33;;;;;;;7.90;81.87;99269.59;5095136;28;20207;-64
2023/11/02 07:26:22;;;;;;;10.87;6.63;;;;;;;7.89;81.38;99265.34;5094752;28;20201;-63
2023/11/02 07:28:50;;;;;;;11.90;7.07;;;;;;;7.93;81.61;99261.03;5094697;28;20566;-62
2023/11/02 07:31:18;;;;;;;11.37;7.43;;;;;;;7.96;81.55;99264.38;5094240;28;20258;-62
2023/11/02 07:33:47;;;;;;;11.10;6.43;;;;;;;7.99;81.80;99261.78;5094277;28;20281;-64
2023/11/02 07:36:16;;;;;;;10.47;6.80;;;;;;;8.06;82.01;99251.41;5094411;28;20230;-62
2023/11/02 07:38:52;;;;;;;10.87;6.70;;;;;;;8.15;82.03;99249.59;5094074;28;20200;-61
2023/11/02 07:41:21;;;;;;;10.23;6.90;;;;;;;8.22;81.27;99251.19;5104385;28;20690;-62
2023/11/02 07:43:49;;;;;;;7.43;6.37;;;;;;;8.31;81.65;99252.75;5109306;28;20261;-62
2023/11/02 07:46:17;;;;;;;9.33;6.77;;;;;;;8.37;80.43;99254.41;5094377;28;20197;-63
2023/11/02 07:48:45;;;;;;;10.57;6.73;;;;;;;8.45;80.86;99260.28;5094265;28;20204;-64
2023/11/02 07:51:14;;;;;;;10.13;7.00;;;;;;;8.52;80.07;99253.34;5093742;28;20203;-64
2023/11/02 07:53:42;;;;;;;10.73;7.13;;;;;;;8.58;79.89;99254.09;5093965;28;20239;-63
2023/11/02 07:56:11;;;;;;;9.97;6.03;;;;;;;8.65;80.57;99244.56;5094167;28;20216;-67
2023/11/02 07:58:42;;;;;;;11.53;6.03;;;;;;;8.71;80.30;99249.59;5093362;28;20201;-66
2023/11/02 08:01:10;;;;;;;9.20;6.37;;;;;;;8.76;79.53;99241.81;5093725;28;20647;-68
2023/11/02 08:03:39;;;;;;;9.13;5.97;;;;;;;8.79;79.94;99237.47;5095712;28;20250;-69
2023/11/02 08:06:07;;;;;;;9.33;6.30;;;;;;;8.84;79.88;99232.28;5095167;28;20197;-68
2023/11/02 08:08:37;;;;;;;10.43;6.17;;;;;;;8.90;79.77;99232.13;5093741;28;20284;-65
2023/11/02 08:11:06;;;;;;;9.33;5.80;;;;;;;8.97;79.28;99227.75;5093382;28;20242;-62
2023/11/02 08:13:34;;;;;;;6.70;5.17;;;;;;;9.03;79.57;99218.22;5092416;28;20281;-63
2023/11/02 08:16:02;;;;;;;10.80;5.57;;;;;;;9.07;79.25;99222.41;5093783;28;20209;-64
2023/11/02 08:18:30;;;;;;;9.77;5.50;;;;;;;9.14;79.11;99223.16;5093313;28;20236;-62
2023/11/02 08:20:59;;;;;;;7.53;5.83;;;;;;;9.24;78.54;99213.53;5093493;28;20207;-68
2023/11/02 08:23:27;;;;;;;6.20;4.83;;;;;;;9.25;78.47;99204.94;5093749;28;20662;-67
2023/11/02 08:25:56;;;;;;;8.43;5.67;;;;;;;9.35;78.45;99211.59;5093858;28;20565;-69
2023/11/02 08:28:24;;;;;;;5.70;4.83;;;;;;;9.46;77.98;99213.94;5093555;28;20197;-63
2023/11/02 08:30:54;;;;;;;7.50;5.00;;;;;;;9.51;77.58;99205.28;5093629;28;20317;-71
2023/11/02 08:33:23;;;;;;;8.80;5.50;;;;;;;9.56;77.59;99200.88;5092943;28;20304;-70
2023/11/02 08:35:51;;;;;;;7.47;5.27;;;;;;;9.60;77.48;99187.06;5098344;28;20605;-67
2023/11/02 08:38:19;;;;;;;6.23;4.57;;;;;;;9.61;77.43;99188.78;5092705;28;20273;-67
2023/11/02 08:40:47;;;;;;;7.40;4.87;;;;;;;9.60;77.51;99189.63;5093487;28;20631;-68
2023/11/02 08:43:17;;;;;;;6.50;4.83;;;;;;;9.62;77.24;99187.03;5093374;28;20231;-69
2023/11/02 08:45:46;;;;;;;6.73;4.53;;;;;;;9.66;77.61;99186.94;5093281;28;20625;-69
2023/11/02 08:48:14;;;;;;;5.27;4.60;;;;;;;9.72;77.59;99187.66;5093249;28;20871;-70
2023/11/02 08:50:42;;;;;;;5.97;4.43;;;;;;;9.77;77.58;99179.00;5093213;28;20611;-65
2023/11/02 08:53:10;;;;;;;7.13;5.03;;;;;;;9.81;77.51;99174.63;5092849;28;20244;-65
2023/11/02 08:55:38;;;;;;;6.80;4.67;;;;;;;9.86;77.33;99165.91;5092461;28;20205;-65
2023/11/02 08:58:06;;;;;;;7.73;4.83;;;;;;;9.89;77.19;99165.84;5092989;28;20324;-63
2023/11/02 09:00:36;;;;;;;5.57;4.17;;;;;;;9.93;77.34;99166.59;5092745;28;20200;-69
2023/11/02 09:03:04;;;;;;;7.93;5.00;;;;;;;9.95;77.27;99153.72;5092293;28;20694;-61
2023/11/02 09:05:32;;;;;;;7.27;5.00;;;;;;;10.02;77.51;99153.53;5090902;28;20205;-64
2023/11/02 09:08:00;;;;;;;5.47;4.50;;;;;;;10.07;77.69;99151.69;5092818;28;20223;-63
2023/11/02 09:10:28;;;;;;;6.67;4.00;;;;;;;10.12;77.10;99143.84;5092457;28;20212;-62
2023/11/02 09:12:56;;;;;;;8.07;4.23;;;;;;;10.18;77.09;99143.72;5092571;28;20208;-64
2023/11/02 09:15:24;;;;;;;6.43;4.20;;;;;;;10.21;76.96;99138.50;5092411;28;20200;-63
2023/11/02 09:17:53;;;;;;;5.63;4.50;;;;;;;10.28;76.81;99134.09;5092124;28;20290;-69
2023/11/02 09:20:21;;;;;;;7.13;3.93;;;;;;;10.31;76.59;99126.25;5092616;28;20596;-64
2023/11/02 09:22:49;;;;;;;7.47;4.80;;;;;;;10.35;76.42;99131.31;5092571;28;20656;-63
2023/11/02 09:25:17;;;;;;;4.47;4.03;;;;;;;10.39;76.29;99124.34;5091650;28;20223;-63
2023/11/02 09:27:47;;;;;;;5.23;3.70;;;;;;;10.42;76.10;99113.97;5092096;28;20213;-62
2023/11/02 09:30:16;;;;;;;5.20;3.77;;;;;;;10.45;76.03;99111.31;5091853;28;20205;-62
2023/11/02 09:32:44;;;;;;;7.00;5.10;;;;;;;10.51;75.95;99110.31;5092051;28;20204;-64
2023/11/02 09:35:13;;;;;;;4.50;3.90;;;;;;;10.57;76.09;99100.69;5091273;28;20208;-69
2023/11/02 09:37:41;;;;;;;5.67;3.90;;;;;;;10.66;75.60;99103.91;5092108;28;20213;-67
2023/11/02 09:40:11;;;;;;;5.43;3.90;;;;;;;10.71;75.46;99104.63;5092284;28;20659;-70
2023/11/02 09:42:39;;;;;;;8.73;3.60;;;;;;;10.75;75.03;99107.09;5092339;28;20631;-68
2023/11/02 09:45:08;;;;;;;5.13;3.53;;;;;;;10.80;74.78;99101.81;5092155;28;20771;-65
2023/11/02 09:47:38;;;;;;;6.43;3.37;;;;;;;10.83;74.48;99097.41;5091589;28;20250;-65
2023/11/02 09:50:08;;;;;;;4.87;3.27;;;;;;;10.85;74.32;99094.78;5091897;28;20563;-63
2023/11/02 09:52:38;;;;;;;7.40;3.10;;;;;;;10.86;73.91;99088.72;5091815;28;20609;-63
2023/11/02 09:55:07;;;;;;;4.87;3.57;;;;;;;10.87;74.23;99082.69;5091891;28;20205;-64
2023/11/02 09:57:36;;;;;;;6.53;3.67;;;;;;;10.91;73.78;99083.47;5091604;28;20216;-64
2023/11/02 10:00:07;;;;;;;6.73;3.47;;;;;;;10.97;73.80;99080.69;5091242;28;20219;-66
2023/11/02 10:02:36;;;;;;;4.57;3.00;;;;;;;11.00;73.68;99073.72;5091238;28;20210;-68
2023/11/02 10:05:05;;;;;;;3.57;2.80;;;;;;;11.05;73.42;99065.88;5091028;28;20208;-64
2023/11/02 10:07:33;;;;;;;3.40;3.03;;;;;;;11.08;73.16;99055.44;5090184;28;20563;-66
2023/11/02 10:10:03;;;;;;;5.30;3.40;;;;;;;11.18;73.27;99064.59;5091350;28;20209;-65
2023/11/02 10:12:35;;;;;;;5.97;3.27;;;;;;;11.23;72.98;99062.75;5091776;28;20585;-64
2023/11/02 10:15:04;;;;;;;6.87;3.13;;;;;;;11.28;72.63;99063.44;5077034;28;20212;-63
2023/11/02 10:17:36;;;;;;;4.43;3.00;;;;;;;11.31;72.36;99058.19;5091162;28;20281;-64
2023/11/02 10:20:11;;;;;;;5.40;3.30;;;;;;;11.37;72.37;99060.56;5090976;28;20211;-63
2023/11/02 10:22:40;;;;;;;3.77;3.13;;;;;;;11.42;72.26;99037.25;5091310;28;20315;-65
2023/11/02 10:25:13;;;;;;;4.47;2.97;;;;;;;11.48;72.11;99034.44;5091226;28;20209;-64
2023/11/02 10:27:42;;;;;;;4.87;2.97;;;;;;;11.57;71.87;99034.16;5091544;28;20201;-64
2023/11/02 10:30:11;;;;;;;6.10;2.93;;;;;;;11.64;71.90;99034.81;5091416;28;20204;-64
2023/11/02 10:32:40;;;;;;;7.27;3.27;;;;;;;11.70;70.90;99037.19;5091251;28;20280;-64
2023/11/02 10:35:08;;;;;;;3.90;3.17;;;;;;;11.77;70.36;99035.25;5093410;28;20250;-65
2023/11/02 10:37:38;;;;;;;4.37;2.70;;;;;;;11.81;70.48;99036.84;5089661;28;20265;-63
2023/11/02 10:40:11;;;;;;;3.40;2.40;;;;;;;11.86;70.06;99024.69;5090881;28;20267;-63
2023/11/02 10:42:40;;;;;;;4.70;3.23;;;;;;;11.90;70.07;99026.25;5091043;28;20204;-64
2023/11/02 10:45:12;;;;;;;3.13;2.63;;;;;;;11.94;69.09;99024.44;5091564;28;20234;-64
2023/11/02 10:47:41;;;;;;;6.37;3.43;;;;;;;11.94;69.46;99027.00;5091054;28;20703;-64
2023/11/02 10:50:13;;;;;;;6.80;2.90;;;;;;;11.89;69.17;99019.41;5091118;28;20204;-65
2023/11/02 10:52:46;;;;;;;3.80;2.60;;;;;;;11.91;69.33;99016.78;5090634;28;20262;-67
2023/11/02 10:55:22;;;;;;;4.27;3.10;;;;;;;11.92;69.74;99010.72;5090950;28;20211;-67
2023/11/02 10:57:50;;;;;;;4.40;2.90;;;;;;;11.92;69.13;98993.47;5090997;28;20635;-66
2023/11/02 11:00:22;;;;;;;3.77;2.30;;;;;;;11.94;69.42;98991.69;5089393;28;20738;-64
2023/11/02 11:02:51;;;;;;;3.07;2.77;;;;;;;11.96;69.26;98992.47;5100876;28;20196;-63
2023/11/02 11:05:20;;;;;;;4.37;2.40;;;;;;;11.93;69.08;98979.69;5090648;28;20232;-64
2023/11/02 11:07:55;;;;;;;4.87;2.93;;;;;;;12.05;69.25;98989.59;5089438;28;20235;-65
2023/11/02 11:10:25;;;;;;;7.73;3.10;;;;;;;12.09;68.80;98980.00;5091005;28;20207;-65
2023/11/02 11:12:54;;;;;;;8.03;2.50;;;;;;;12.13;68.66;98983.31;5090577;28;20640;-64
2023/11/02 11:15:23;;;;;;;5.10;2.93;;;;;;;12.13;68.87;98970.41;5090947;28;20566;-63
2023/11/02 11:17:51;;;;;;;3.37;2.50;;;;;;;12.22;68.45;98985.56;5090498;28;20239;-64
2023/11/02 11:20:20;;;;;;;4.17;2.47;;;;;;;12.25;68.55;98978.56;5091095;28;20613;-70
2023/11/02 11:22:51;;;;;;;6.10;2.57;;;;;;;12.28;67.93;98983.63;5090357;28;20232;-70
2023/11/02 11:25:19;;;;;;;3.20;2.30;;;;;;;12.31;67.98;98985.25;5090673;28;20200;-70
2023/11/02 11:27:49;;;;;;;3.47;2.40;;;;;;;12.33;67.87;98979.16;5090433;28;20261;-69
2023/11/02 11:30:39;;;;;;;4.17;2.90;;;;;;;12.36;67.35;98965.25;5090336;28;20204;-70
2023/11/02 11:33:40;;;;;;;3.53;2.60;;;;;;;12.40;67.00;98966.00;5090226;28;20295;-69
2023/11/02 11:36:35;;;;;;;5.93;3.10;;;;;;;12.43;66.80;98964.16;5090515;28;20204;-71
2023/11/02 11:39:34;;;;;;;7.13;3.07;;;;;;;12.47;66.91;98959.72;5053592;28;20313;-69
2023/11/02 11:42:02;;;;;;;5.13;2.40;;;;;;;12.59;66.61;98959.25;5090789;28;20487;-70
2023/11/02 11:44:31;;;;;;;5.60;2.70;;;;;;;12.80;65.89;98957.59;5090038;28;20205;-70
2023/11/02 11:47:00;;;;;;;5.10;2.20;;;;;;;13.09;64.36;98947.88;5089685;28;20200;-71
2023/11/02 11:49:47;;;;;;;2.53;2.10;;;;;;;13.48;64.46;98950.66;5093497;28;20193;-70
2023/11/02 11:52:27;;;;;;;4.00;2.20;;;;;;;13.86;63.02;98941.28;5093131;28;20208;-69
2023/11/02 11:54:56;;;;;;;4.63;2.33;;;;;;;14.15;62.24;98947.81;5094045;28;20322;-71
2023/11/02 11:57:53;;;;;;;2.93;2.33;;;;;;;14.37;59.25;98932.16;5092554;28;20201;-71